sensor_id;sensor_type;location;lat;lon;timestamp;noise_LAeq;noise_LA_min;noise_LA_max;noise_LA01;noise_LA95
72805;Laerm;60920;48.748;19.142;2024-03-02T00:00:18;28.94;27.63;30.18;;
72805;Laerm;60920;48.748;19.142;2024-03-02T00:02:45;28.92;27.74;30.09;;
72805;Laerm;60920;48.748;19.142;2024-03-02T00:05:11;28.93;27.68;30.03;;
72805;Laerm;60920;48.748;19.142;2024-03-02T00:07:37;28.93;27.67;30.19;;
72805;Laerm;60920;48.748;19.142;2024-03-02T00:10:07;28.92;27.71;30.27;;
72805;Laerm;60920;48.748;19.142;2024-03-02T00:12:33;28.93;27.54;30.24;;
72805;Laerm;60920;48.748;19.142;2024-03-02T00:14:58;28.94;27.63;30.18;;
72805;Laerm;60920;48.748;19.142;2024-03-02T00:17:27;28.95;27.78;30.31;;
72805;Laerm;60920;48.748;19.142;2024-03-02T00:19:53;28.95;27.66;30.15;;
72805;Laerm;60920;48.748;19.142;2024-03-02T00:22:18;28.93;27.66;30.03;;
72805;Laerm;60920;48.748;19.142;2024-03-02T00:24:43;28.94;27.65;30.16;;
72805;Laerm;60920;48.748;19.142;2024-03-02T00:27:08;28.94;27.75;30.02;;
72805;Laerm;60920;48.748;19.142;2024-03-02T00:29:37;28.94;27.64;30.19;;
72805;Laerm;60920;48.748;19.142;2024-03-02T00:32:04;28.93;27.49;30.07;;
72805;Laerm;60920;48.748;19.142;2024-03-02T00:34:34;28.94;27.56;30.10;;
72805;Laerm;60920;48.748;19.142;2024-03-02T00:37:00;28.92;27.67;30.06;;
72805;Laerm;60920;48.748;19.142;2024-03-02T00:39:25;28.92;27.63;30.26;;
72805;Laerm;60920;48.748;19.142;2024-03-02T00:41:50;28.94;27.71;30.23;;
72805;Laerm;60920;48.748;19.142;2024-03-02T00:44:16;28.92;27.62;30.39;;
72805;Laerm;60920;48.748;19.142;2024-03-02T00:46:45;28.94;27.75;30.18;;
72805;Laerm;60920;48.748;19.142;2024-03-02T00:49:18;28.94;27.51;30.25;;
72805;Laerm;60920;48.748;19.142;2024-03-02T00:51:48;28.94;27.56;30.13;;
72805;Laerm;60920;48.748;19.142;2024-03-02T00:54:19;28.95;27.64;30.39;;
72805;Laerm;60920;48.748;19.142;2024-03-02T00:56:45;28.93;27.57;30.30;;
72805;Laerm;60920;48.748;19.142;2024-03-02T00:59:12;28.94;27.69;30.28;;
72805;Laerm;60920;48.748;19.142;2024-03-02T01:01:37;28.94;27.60;30.15;;
72805;Laerm;60920;48.748;19.142;2024-03-02T01:04:02;28.95;27.43;30.29;;
72805;Laerm;60920;48.748;19.142;2024-03-02T01:06:28;28.95;27.58;30.41;;
72805;Laerm;60920;48.748;19.142;2024-03-02T01:08:54;28.96;27.77;30.17;;
72805;Laerm;60920;48.748;19.142;2024-03-02T01:11:19;28.93;27.51;30.11;;
72805;Laerm;60920;48.748;19.142;2024-03-02T01:13:47;28.93;27.60;30.14;;
72805;Laerm;60920;48.748;19.142;2024-03-02T01:16:12;28.93;27.68;30.08;;
72805;Laerm;60920;48.748;19.142;2024-03-02T01:18:37;28.96;27.57;30.32;;
72805;Laerm;60920;48.748;19.142;2024-03-02T01:21:03;28.99;27.46;30.23;;
72805;Laerm;60920;48.748;19.142;2024-03-02T01:23:28;29.01;27.66;30.38;;
72805;Laerm;60920;48.748;19.142;2024-03-02T01:25:54;29.01;27.64;30.44;;
72805;Laerm;60920;48.748;19.142;2024-03-02T01:28:20;29.01;27.57;30.19;;
72805;Laerm;60920;48.748;19.142;2024-03-02T01:30:45;29.01;27.48;30.36;;
72805;Laerm;60920;48.748;19.142;2024-03-02T01:33:11;29.00;27.72;30.20;;
72805;Laerm;60920;48.748;19.142;2024-03-02T01:35:36;29.00;27.79;30.24;;
72805;Laerm;60920;48.748;19.142;2024-03-02T01:38:03;29.01;27.53;30.29;;
72805;Laerm;60920;48.748;19.142;2024-03-02T01:40:28;29.00;27.73;30.20;;
72805;Laerm;60920;48.748;19.142;2024-03-02T01:42:54;29.02;27.53;30.24;;
72805;Laerm;60920;48.748;19.142;2024-03-02T01:45:20;29.01;27.78;30.51;;
72805;Laerm;60920;48.748;19.142;2024-03-02T01:47:45;29.02;27.81;30.55;;
72805;Laerm;60920;48.748;19.142;2024-03-02T01:50:13;29.01;27.75;30.10;;
72805;Laerm;60920;48.748;19.142;2024-03-02T01:52:39;29.00;27.46;30.16;;
72805;Laerm;60920;48.748;19.142;2024-03-02T01:55:05;29.00;27.80;30.31;;
72805;Laerm;60920;48.748;19.142;2024-03-02T01:57:31;28.98;27.69;30.24;;
72805;Laerm;60920;48.748;19.142;2024-03-02T01:59:56;28.98;27.52;30.18;;
72805;Laerm;60920;48.748;19.142;2024-03-02T02:02:22;28.96;27.70;30.16;;
72805;Laerm;60920;48.748;19.142;2024-03-02T02:04:47;28.98;27.19;30.15;;
72805;Laerm;60920;48.748;19.142;2024-03-02T02:07:12;28.95;27.76;30.12;;
72805;Laerm;60920;48.748;19.142;2024-03-02T02:09:39;28.94;27.65;30.13;;
72805;Laerm;60920;48.748;19.142;2024-03-02T02:12:05;28.91;27.62;30.18;;
72805;Laerm;60920;48.748;19.142;2024-03-02T02:14:31;28.91;27.53;30.36;;
72805;Laerm;60920;48.748;19.142;2024-03-02T02:16:57;28.93;27.45;30.19;;
72805;Laerm;60920;48.748;19.142;2024-03-02T02:19:22;28.92;27.65;30.10;;
72805;Laerm;60920;48.748;19.142;2024-03-02T02:21:48;28.92;27.66;30.13;;
72805;Laerm;60920;48.748;19.142;2024-03-02T02:24:13;28.91;27.47;30.21;;
72805;Laerm;60920;48.748;19.142;2024-03-02T02:26:38;28.90;27.63;30.07;;
72805;Laerm;60920;48.748;19.142;2024-03-02T02:29:04;28.92;27.68;30.22;;
72805;Laerm;60920;48.748;19.142;2024-03-02T02:31:39;28.91;27.67;30.05;;
72805;Laerm;60920;48.748;19.142;2024-03-02T02:34:05;28.91;27.56;30.10;;
72805;Laerm;60920;48.748;19.142;2024-03-02T02:36:32;28.92;27.60;30.06;;
72805;Laerm;60920;48.748;19.142;2024-03-02T02:38:59;28.89;27.49;30.11;;
72805;Laerm;60920;48.748;19.142;2024-03-02T02:41:28;28.92;27.71;30.06;;
72805;Laerm;60920;48.748;19.142;2024-03-02T02:43:53;28.91;27.78;30.13;;
72805;Laerm;60920;48.748;19.142;2024-03-02T02:46:18;28.91;27.69;30.11;;
72805;Laerm;60920;48.748;19.142;2024-03-02T02:48:44;28.92;27.57;30.28;;
72805;Laerm;60920;48.748;19.142;2024-03-02T02:51:10;28.91;27.52;30.05;;
72805;Laerm;60920;48.748;19.142;2024-03-02T02:53:35;28.91;27.72;30.10;;
72805;Laerm;60920;48.748;19.142;2024-03-02T02:56:00;28.91;27.53;30.07;;
72805;Laerm;60920;48.748;19.142;2024-03-02T02:58:25;28.91;27.72;30.23;;
72805;Laerm;60920;48.748;19.142;2024-03-02T03:00:51;28.91;27.64;30.10;;
72805;Laerm;60920;48.748;19.142;2024-03-02T03:03:16;28.92;27.66;30.63;;
72805;Laerm;60920;48.748;19.142;2024-03-02T03:05:41;28.91;27.56;30.18;;
72805;Laerm;60920;48.748;19.142;2024-03-02T03:08:07;28.91;27.43;30.26;;
72805;Laerm;60920;48.748;19.142;2024-03-02T03:10:32;28.91;27.54;30.02;;
72805;Laerm;60920;48.748;19.142;2024-03-02T03:12:58;28.93;27.73;30.22;;
72805;Laerm;60920;48.748;19.142;2024-03-02T03:15:23;28.94;27.63;30.10;;
72805;Laerm;60920;48.748;19.142;2024-03-02T03:17:49;28.95;27.76;30.27;;
72805;Laerm;60920;48.748;19.142;2024-03-02T03:20:15;28.97;27.76;30.10;;
72805;Laerm;60920;48.748;19.142;2024-03-02T03:22:41;28.98;27.57;30.05;;
72805;Laerm;60920;48.748;19.142;2024-03-02T03:25:06;29.02;27.74;30.23;;
72805;Laerm;60920;48.748;19.142;2024-03-02T03:27:34;29.02;27.82;30.26;;
72805;Laerm;60920;48.748;19.142;2024-03-02T03:30:00;29.02;27.68;30.43;;
72805;Laerm;60920;48.748;19.142;2024-03-02T03:32:25;29.02;27.61;30.39;;
72805;Laerm;60920;48.748;19.142;2024-03-02T03:34:50;29.02;27.78;30.28;;
72805;Laerm;60920;48.748;19.142;2024-03-02T03:37:16;29.03;27.56;30.21;;
72805;Laerm;60920;48.748;19.142;2024-03-02T03:39:41;29.01;27.71;30.49;;
72805;Laerm;60920;48.748;19.142;2024-03-02T03:42:06;29.01;27.52;30.24;;
72805;Laerm;60920;48.748;19.142;2024-03-02T03:44:32;29.00;27.65;30.32;;
72805;Laerm;60920;48.748;19.142;2024-03-02T03:46:57;29.00;27.78;30.29;;
72805;Laerm;60920;48.748;19.142;2024-03-02T03:49:22;29.02;27.71;30.23;;
72805;Laerm;60920;48.748;19.142;2024-03-02T03:51:47;29.01;27.51;30.19;;
72805;Laerm;60920;48.748;19.142;2024-03-02T03:54:13;29.00;27.38;30.45;;
72805;Laerm;60920;48.748;19.142;2024-03-02T03:56:38;28.99;27.48;30.30;;
72805;Laerm;60920;48.748;19.142;2024-03-02T03:59:03;28.98;27.62;30.27;;
72805;Laerm;60920;48.748;19.142;2024-03-02T04:01:29;28.98;27.66;30.23;;
72805;Laerm;60920;48.748;19.142;2024-03-02T04:03:55;28.96;27.58;30.25;;
72805;Laerm;60920;48.748;19.142;2024-03-02T04:06:20;28.96;27.53;30.24;;
72805;Laerm;60920;48.748;19.142;2024-03-02T04:08:45;28.96;27.69;30.22;;
72805;Laerm;60920;48.748;19.142;2024-03-02T04:11:10;28.97;27.66;30.48;;
72805;Laerm;60920;48.748;19.142;2024-03-02T04:13:36;28.97;27.66;30.13;;
72805;Laerm;60920;48.748;19.142;2024-03-02T04:16:01;28.97;27.76;30.11;;
72805;Laerm;60920;48.748;19.142;2024-03-02T04:18:28;28.96;27.66;30.17;;
72805;Laerm;60920;48.748;19.142;2024-03-02T04:20:54;28.95;27.49;30.17;;
72805;Laerm;60920;48.748;19.142;2024-03-02T04:23:19;28.94;27.30;30.30;;
72805;Laerm;60920;48.748;19.142;2024-03-02T04:25:44;28.93;27.65;30.07;;
72805;Laerm;60920;48.748;19.142;2024-03-02T04:28:09;28.91;27.68;30.32;;
72805;Laerm;60920;48.748;19.142;2024-03-02T04:30:34;28.90;27.55;30.19;;
72805;Laerm;60920;48.748;19.142;2024-03-02T04:33:00;28.91;27.53;30.17;;
72805;Laerm;60920;48.748;19.142;2024-03-02T04:35:26;28.91;27.56;30.16;;
72805;Laerm;60920;48.748;19.142;2024-03-02T04:37:51;28.90;27.53;30.28;;
72805;Laerm;60920;48.748;19.142;2024-03-02T04:40:16;28.88;27.54;30.17;;
72805;Laerm;60920;48.748;19.142;2024-03-02T04:42:42;28.88;27.48;30.39;;
72805;Laerm;60920;48.748;19.142;2024-03-02T04:45:08;28.88;27.40;30.15;;
72805;Laerm;60920;48.748;19.142;2024-03-02T04:47:33;28.87;27.59;30.08;;
72805;Laerm;60920;48.748;19.142;2024-03-02T04:49:58;28.88;27.42;30.12;;
72805;Laerm;60920;48.748;19.142;2024-03-02T04:52:24;28.88;27.58;30.28;;
72805;Laerm;60920;48.748;19.142;2024-03-02T04:54:49;28.87;27.72;29.99;;
72805;Laerm;60920;48.748;19.142;2024-03-02T04:57:33;28.87;27.55;30.25;;
72805;Laerm;60920;48.748;19.142;2024-03-02T04:59:58;28.87;27.48;30.14;;
72805;Laerm;60920;48.748;19.142;2024-03-02T05:02:24;28.87;27.46;30.37;;
72805;Laerm;60920;48.748;19.142;2024-03-02T05:04:49;28.88;27.48;30.17;;
72805;Laerm;60920;48.748;19.142;2024-03-02T05:07:14;28.88;27.67;30.16;;
72805;Laerm;60920;48.748;19.142;2024-03-02T05:09:40;28.88;27.55;30.19;;
72805;Laerm;60920;48.748;19.142;2024-03-02T05:12:05;28.89;27.56;30.24;;
72805;Laerm;60920;48.748;19.142;2024-03-02T05:14:36;28.92;27.36;30.30;;
72805;Laerm;60920;48.748;19.142;2024-03-02T05:17:02;28.88;27.55;30.24;;
72805;Laerm;60920;48.748;19.142;2024-03-02T05:19:27;28.88;27.45;30.09;;
72805;Laerm;60920;48.748;19.142;2024-03-02T05:21:52;28.91;27.73;30.47;;
72805;Laerm;60920;48.748;19.142;2024-03-02T05:24:18;28.90;27.65;30.25;;
72805;Laerm;60920;48.748;19.142;2024-03-02T05:26:43;28.89;27.43;30.23;;
72805;Laerm;60920;48.748;19.142;2024-03-02T05:29:09;28.89;27.58;30.25;;
72805;Laerm;60920;48.748;19.142;2024-03-02T05:31:34;28.89;27.57;30.15;;
72805;Laerm;60920;48.748;19.142;2024-03-02T05:33:59;28.89;27.58;30.26;;
72805;Laerm;60920;48.748;19.142;2024-03-02T05:36:24;28.90;27.44;30.12;;
72805;Laerm;60920;48.748;19.142;2024-03-02T05:38:50;28.89;27.59;30.15;;
72805;Laerm;60920;48.748;19.142;2024-03-02T05:41:15;28.92;27.47;30.13;;
72805;Laerm;60920;48.748;19.142;2024-03-02T05:43:40;28.94;27.32;30.43;;
72805;Laerm;60920;48.748;19.142;2024-03-02T05:46:05;28.90;27.62;30.04;;
72805;Laerm;60920;48.748;19.142;2024-03-02T05:48:31;28.90;27.52;30.34;;
72805;Laerm;60920;48.748;19.142;2024-03-02T05:50:56;28.90;27.22;30.11;;
72805;Laerm;60920;48.748;19.142;2024-03-02T05:53:21;28.92;27.39;30.34;;
72805;Laerm;60920;48.748;19.142;2024-03-02T05:55:46;28.93;27.64;30.18;;
72805;Laerm;60920;48.748;19.142;2024-03-02T05:58:12;28.93;27.70;30.54;;
72805;Laerm;60920;48.748;19.142;2024-03-02T06:00:51;28.92;27.54;30.09;;
72805;Laerm;60920;48.748;19.142;2024-03-02T06:03:16;28.93;27.84;30.13;;
72805;Laerm;60920;48.748;19.142;2024-03-02T06:05:41;28.92;27.58;30.31;;
72805;Laerm;60920;48.748;19.142;2024-03-02T06:08:06;28.93;27.52;30.34;;
72805;Laerm;60920;48.748;19.142;2024-03-02T06:10:32;28.92;27.59;30.30;;
72805;Laerm;60920;48.748;19.142;2024-03-02T06:12:58;28.95;27.71;30.17;;
72805;Laerm;60920;48.748;19.142;2024-03-02T06:15:24;28.93;27.73;30.18;;
72805;Laerm;60920;48.748;19.142;2024-03-02T06:17:49;28.95;27.54;30.16;;
72805;Laerm;60920;48.748;19.142;2024-03-02T06:20:14;28.93;27.44;30.52;;
72805;Laerm;60920;48.748;19.142;2024-03-02T06:22:40;28.92;27.65;30.11;;
72805;Laerm;60920;48.748;19.142;2024-03-02T06:25:05;28.92;27.67;30.15;;
72805;Laerm;60920;48.748;19.142;2024-03-02T06:27:31;28.95;27.51;30.33;;
72805;Laerm;60920;48.748;19.142;2024-03-02T06:29:56;28.92;27.43;30.11;;
72805;Laerm;60920;48.748;19.142;2024-03-02T06:32:21;28.93;27.60;30.12;;
72805;Laerm;60920;48.748;19.142;2024-03-02T06:34:48;28.92;27.80;30.09;;
72805;Laerm;60920;48.748;19.142;2024-03-02T06:37:13;28.92;27.66;30.26;;
72805;Laerm;60920;48.748;19.142;2024-03-02T06:39:38;28.93;27.57;30.13;;
72805;Laerm;60920;48.748;19.142;2024-03-02T06:42:04;28.95;27.65;30.25;;
72805;Laerm;60920;48.748;19.142;2024-03-02T06:44:29;28.93;27.50;30.15;;
72805;Laerm;60920;48.748;19.142;2024-03-02T06:46:54;28.94;27.52;30.19;;
72805;Laerm;60920;48.748;19.142;2024-03-02T06:49:19;28.95;27.57;30.33;;
72805;Laerm;60920;48.748;19.142;2024-03-02T06:51:45;28.96;27.60;30.14;;
72805;Laerm;60920;48.748;19.142;2024-03-02T06:54:10;28.96;27.57;30.07;;
72805;Laerm;60920;48.748;19.142;2024-03-02T06:56:35;28.97;27.67;30.33;;
72805;Laerm;60920;48.748;19.142;2024-03-02T06:59:01;29.00;27.63;30.19;;
72805;Laerm;60920;48.748;19.142;2024-03-02T07:01:26;28.99;27.51;30.24;;
72805;Laerm;60920;48.748;19.142;2024-03-02T07:03:53;28.99;27.69;30.23;;
72805;Laerm;60920;48.748;19.142;2024-03-02T07:06:18;28.98;27.66;30.43;;
72805;Laerm;60920;48.748;19.142;2024-03-02T07:08:43;28.99;27.69;30.08;;
72805;Laerm;60920;48.748;19.142;2024-03-02T07:11:09;28.97;27.62;30.19;;
72805;Laerm;60920;48.748;19.142;2024-03-02T07:13:34;28.97;27.58;30.26;;
72805;Laerm;60920;48.748;19.142;2024-03-02T07:16:00;28.97;27.45;30.24;;
72805;Laerm;60920;48.748;19.142;2024-03-02T07:18:28;28.97;27.65;30.08;;
72805;Laerm;60920;48.748;19.142;2024-03-02T07:20:53;28.99;27.69;30.21;;
72805;Laerm;60920;48.748;19.142;2024-03-02T07:23:20;28.97;27.75;30.17;;
72805;Laerm;60920;48.748;19.142;2024-03-02T07:25:48;28.98;27.57;30.17;;
72805;Laerm;60920;48.748;19.142;2024-03-02T07:28:13;28.99;27.69;30.22;;
72805;Laerm;60920;48.748;19.142;2024-03-02T07:30:39;29.05;27.74;30.36;;
72805;Laerm;60920;48.748;19.142;2024-03-02T07:33:05;29.13;27.88;30.18;;
72805;Laerm;60920;48.748;19.142;2024-03-02T07:35:31;29.26;27.85;30.71;;
72805;Laerm;60920;48.748;19.142;2024-03-02T07:37:56;29.15;27.82;30.32;;
72805;Laerm;60920;48.748;19.142;2024-03-02T07:40:22;29.24;27.87;30.96;;
72805;Laerm;60920;48.748;19.142;2024-03-02T07:42:47;29.12;27.86;30.31;;
72805;Laerm;60920;48.748;19.142;2024-03-02T07:45:12;29.10;27.80;30.32;;
72805;Laerm;60920;48.748;19.142;2024-03-02T07:47:38;29.09;27.88;30.32;;
72805;Laerm;60920;48.748;19.142;2024-03-02T07:50:03;29.08;27.62;30.34;;
72805;Laerm;60920;48.748;19.142;2024-03-02T07:52:31;29.07;27.85;30.26;;
72805;Laerm;60920;48.748;19.142;2024-03-02T07:54:56;29.07;27.74;30.31;;
72805;Laerm;60920;48.748;19.142;2024-03-02T07:57:21;29.05;27.78;30.27;;
72805;Laerm;60920;48.748;19.142;2024-03-02T07:59:48;29.05;27.69;30.20;;
72805;Laerm;60920;48.748;19.142;2024-03-02T08:02:14;29.04;27.58;30.23;;
72805;Laerm;60920;48.748;19.142;2024-03-02T08:04:40;29.04;27.84;30.31;;
72805;Laerm;60920;48.748;19.142;2024-03-02T08:07:05;29.02;27.53;30.19;;
72805;Laerm;60920;48.748;19.142;2024-03-02T08:09:31;29.03;27.54;30.23;;
72805;Laerm;60920;48.748;19.142;2024-03-02T08:11:56;29.05;27.65;30.41;;
72805;Laerm;60920;48.748;19.142;2024-03-02T08:14:23;29.06;27.64;30.38;;
72805;Laerm;60920;48.748;19.142;2024-03-02T08:16:48;29.03;27.65;30.32;;
72805;Laerm;60920;48.748;19.142;2024-03-02T08:19:14;29.03;27.77;30.37;;
72805;Laerm;60920;48.748;19.142;2024-03-02T08:21:39;29.05;27.82;30.35;;
72805;Laerm;60920;48.748;19.142;2024-03-02T08:24:05;29.10;27.87;30.31;;
72805;Laerm;60920;48.748;19.142;2024-03-02T08:26:31;29.10;27.66;30.50;;
72805;Laerm;60920;48.748;19.142;2024-03-02T08:28:57;29.11;27.81;30.28;;
72805;Laerm;60920;48.748;19.142;2024-03-02T08:31:22;29.13;27.67;30.41;;
72805;Laerm;60920;48.748;19.142;2024-03-02T08:33:47;29.15;27.58;30.34;;
72805;Laerm;60920;48.748;19.142;2024-03-02T08:36:13;29.14;27.74;30.36;;
72805;Laerm;60920;48.748;19.142;2024-03-02T08:38:39;29.14;27.75;30.39;;
72805;Laerm;60920;48.748;19.142;2024-03-02T08:41:04;29.22;27.84;30.69;;
72805;Laerm;60920;48.748;19.142;2024-03-02T08:43:29;29.15;27.75;30.55;;
72805;Laerm;60920;48.748;19.142;2024-03-02T08:45:55;29.15;27.90;30.53;;
72805;Laerm;60920;48.748;19.142;2024-03-02T08:48:20;29.17;27.87;30.43;;
72805;Laerm;60920;48.748;19.142;2024-03-02T08:50:46;29.15;27.76;30.52;;
72805;Laerm;60920;48.748;19.142;2024-03-02T08:53:11;29.16;27.70;30.53;;
72805;Laerm;60920;48.748;19.142;2024-03-02T08:55:36;29.18;27.35;30.43;;
72805;Laerm;60920;48.748;19.142;2024-03-02T08:58:02;29.17;27.86;30.27;;
72805;Laerm;60920;48.748;19.142;2024-03-02T09:00:27;29.19;27.98;30.38;;
72805;Laerm;60920;48.748;19.142;2024-03-02T09:02:53;29.24;27.73;34.69;;
72805;Laerm;60920;48.748;19.142;2024-03-02T09:05:18;29.22;27.87;30.69;;
72805;Laerm;60920;48.748;19.142;2024-03-02T09:07:44;29.17;27.82;30.46;;
72805;Laerm;60920;48.748;19.142;2024-03-02T09:10:10;29.16;27.70;30.36;;
72805;Laerm;60920;48.748;19.142;2024-03-02T09:12:35;29.22;27.72;30.48;;
72805;Laerm;60920;48.748;19.142;2024-03-02T09:15:01;29.22;27.93;30.43;;
72805;Laerm;60920;48.748;19.142;2024-03-02T09:17:26;29.24;27.95;30.53;;
72805;Laerm;60920;48.748;19.142;2024-03-02T09:19:51;29.30;28.00;30.51;;
72805;Laerm;60920;48.748;19.142;2024-03-02T09:22:18;29.26;27.92;30.59;;
72805;Laerm;60920;48.748;19.142;2024-03-02T09:24:43;29.26;28.01;30.43;;
72805;Laerm;60920;48.748;19.142;2024-03-02T09:27:08;29.29;28.00;30.48;;
72805;Laerm;60920;48.748;19.142;2024-03-02T09:29:34;29.38;28.11;30.49;;
72805;Laerm;60920;48.748;19.142;2024-03-02T09:31:59;29.47;28.25;30.75;;
72805;Laerm;60920;48.748;19.142;2024-03-02T09:34:24;29.47;27.98;30.73;;
72805;Laerm;60920;48.748;19.142;2024-03-02T09:36:51;29.45;28.04;36.16;;
72805;Laerm;60920;48.748;19.142;2024-03-02T09:39:16;29.45;28.25;30.66;;
72805;Laerm;60920;48.748;19.142;2024-03-02T09:41:43;29.43;27.95;30.65;;
72805;Laerm;60920;48.748;19.142;2024-03-02T09:44:08;29.42;28.10;30.88;;
72805;Laerm;60920;48.748;19.142;2024-03-02T09:46:34;29.38;27.96;30.70;;
72805;Laerm;60920;48.748;19.142;2024-03-02T09:49:01;29.34;28.04;30.69;;
72805;Laerm;60920;48.748;19.142;2024-03-02T09:51:27;29.30;27.95;30.63;;
72805;Laerm;60920;48.748;19.142;2024-03-02T09:53:52;29.29;27.88;30.54;;
72805;Laerm;60920;48.748;19.142;2024-03-02T09:56:19;29.41;27.90;30.67;;
72805;Laerm;60920;48.748;19.142;2024-03-02T09:58:44;29.46;28.04;31.21;;
72805;Laerm;60920;48.748;19.142;2024-03-02T10:01:09;29.41;28.14;30.50;;
72805;Laerm;60920;48.748;19.142;2024-03-02T10:03:38;29.39;28.15;30.69;;
72805;Laerm;60920;48.748;19.142;2024-03-02T10:06:23;29.34;27.64;30.55;;
72805;Laerm;60920;48.748;19.142;2024-03-02T10:12:11;29.40;27.85;30.57;;
72805;Laerm;60920;48.748;19.142;2024-03-02T10:14:37;29.32;27.92;30.59;;
72805;Laerm;60920;48.748;19.142;2024-03-02T10:17:03;29.30;28.13;30.51;;
72805;Laerm;60920;48.748;19.142;2024-03-02T10:19:29;29.30;27.85;30.72;;
72805;Laerm;60920;48.748;19.142;2024-03-02T10:21:58;29.32;27.94;30.62;;
72805;Laerm;60920;48.748;19.142;2024-03-02T10:24:24;29.35;27.84;31.51;;
72805;Laerm;60920;48.748;19.142;2024-03-02T10:26:50;29.35;28.08;31.02;;
72805;Laerm;60920;48.748;19.142;2024-03-02T10:29:15;29.40;28.18;30.63;;
72805;Laerm;60920;48.748;19.142;2024-03-02T10:31:41;29.42;28.15;30.52;;
72805;Laerm;60920;48.748;19.142;2024-03-02T10:34:07;29.47;28.27;31.68;;
72805;Laerm;60920;48.748;19.142;2024-03-02T10:36:33;29.70;28.02;42.52;;
72805;Laerm;60920;48.748;19.142;2024-03-02T10:39:01;29.98;28.21;45.22;;
72805;Laerm;60920;48.748;19.142;2024-03-02T10:41:27;29.60;28.31;31.01;;
72805;Laerm;60920;48.748;19.142;2024-03-02T10:43:53;29.59;28.28;30.78;;
72805;Laerm;60920;48.748;19.142;2024-03-02T10:46:27;29.57;28.30;30.90;;
72805;Laerm;60920;48.748;19.142;2024-03-02T10:48:54;29.57;28.27;30.69;;
72805;Laerm;60920;48.748;19.142;2024-03-02T10:51:19;29.55;28.38;30.71;;
72805;Laerm;60920;48.748;19.142;2024-03-02T10:53:44;29.54;28.31;30.70;;
72805;Laerm;60920;48.748;19.142;2024-03-02T10:56:10;29.60;28.43;30.79;;
72805;Laerm;60920;48.748;19.142;2024-03-02T10:58:41;29.65;28.41;30.88;;
72805;Laerm;60920;48.748;19.142;2024-03-02T11:01:06;29.64;28.36;30.91;;
72805;Laerm;60920;48.748;19.142;2024-03-02T11:03:33;29.64;28.19;30.86;;
72805;Laerm;60920;48.748;19.142;2024-03-02T11:06:00;29.66;28.13;30.97;;
72805;Laerm;60920;48.748;19.142;2024-03-02T11:08:25;29.66;28.24;31.03;;
72805;Laerm;60920;48.748;19.142;2024-03-02T11:10:59;29.61;28.26;30.91;;
72805;Laerm;60920;48.748;19.142;2024-03-02T11:13:35;29.61;28.30;30.63;;
72805;Laerm;60920;48.748;19.142;2024-03-02T11:16:06;29.61;28.04;30.83;;
72805;Laerm;60920;48.748;19.142;2024-03-02T11:18:35;29.59;28.10;30.72;;
72805;Laerm;60920;48.748;19.142;2024-03-02T11:21:01;29.59;28.38;30.80;;
72805;Laerm;60920;48.748;19.142;2024-03-02T11:23:33;29.58;28.41;30.72;;
72805;Laerm;60920;48.748;19.142;2024-03-02T11:28:43;29.55;28.09;30.78;;
72805;Laerm;60920;48.748;19.142;2024-03-02T11:31:09;29.54;28.15;30.87;;
72805;Laerm;60920;48.748;19.142;2024-03-02T11:33:34;29.53;27.94;30.76;;
72805;Laerm;60920;48.748;19.142;2024-03-02T11:35:59;29.55;28.23;30.80;;
72805;Laerm;60920;48.748;19.142;2024-03-02T11:38:27;29.57;27.92;30.64;;
72805;Laerm;60920;48.748;19.142;2024-03-02T11:40:53;29.57;27.81;30.78;;
72805;Laerm;60920;48.748;19.142;2024-03-02T11:43:19;29.58;28.23;30.82;;
72805;Laerm;60920;48.748;19.142;2024-03-02T11:45:44;29.63;28.44;30.83;;
72805;Laerm;60920;48.748;19.142;2024-03-02T11:48:11;29.61;28.31;30.89;;
72805;Laerm;60920;48.748;19.142;2024-03-02T11:53:14;29.61;28.09;31.95;;
72805;Laerm;60920;48.748;19.142;2024-03-02T11:55:39;29.57;28.42;30.76;;
72805;Laerm;60920;48.748;19.142;2024-03-02T11:58:14;29.53;27.86;30.92;;
72805;Laerm;60920;48.748;19.142;2024-03-02T12:00:45;29.47;28.09;30.69;;
72805;Laerm;60920;48.748;19.142;2024-03-02T12:03:12;29.39;28.06;30.78;;
72805;Laerm;60920;48.748;19.142;2024-03-02T12:05:37;29.37;28.14;30.66;;
72805;Laerm;60920;48.748;19.142;2024-03-02T12:08:06;29.37;28.00;35.00;;
72805;Laerm;60920;48.748;19.142;2024-03-02T12:10:32;29.42;28.10;30.95;;
72805;Laerm;60920;48.748;19.142;2024-03-02T12:15:25;29.43;27.92;30.71;;
72805;Laerm;60920;48.748;19.142;2024-03-02T12:17:52;29.45;27.98;30.71;;
72805;Laerm;60920;48.748;19.142;2024-03-02T12:20:17;29.41;28.07;30.72;;
72805;Laerm;60920;48.748;19.142;2024-03-02T12:22:43;29.45;28.20;30.72;;
72805;Laerm;60920;48.748;19.142;2024-03-02T12:25:08;29.47;28.11;30.76;;
72805;Laerm;60920;48.748;19.142;2024-03-02T12:27:33;29.52;28.27;30.79;;
72805;Laerm;60920;48.748;19.142;2024-03-02T12:29:59;29.55;28.03;31.07;;
72805;Laerm;60920;48.748;19.142;2024-03-02T12:32:24;29.55;28.18;30.58;;
72805;Laerm;60920;48.748;19.142;2024-03-02T12:34:50;29.49;28.22;30.84;;
72805;Laerm;60920;48.748;19.142;2024-03-02T12:37:16;29.55;28.23;30.79;;
72805;Laerm;60920;48.748;19.142;2024-03-02T12:39:44;29.53;27.89;31.00;;
72805;Laerm;60920;48.748;19.142;2024-03-02T12:42:09;29.50;28.00;30.75;;
72805;Laerm;60920;48.748;19.142;2024-03-02T12:44:35;29.47;28.22;30.69;;
72805;Laerm;60920;48.748;19.142;2024-03-02T12:47:00;29.48;28.16;30.80;;
72805;Laerm;60920;48.748;19.142;2024-03-02T12:49:25;29.49;28.21;30.89;;
72805;Laerm;60920;48.748;19.142;2024-03-02T12:51:52;29.47;28.09;30.69;;
72805;Laerm;60920;48.748;19.142;2024-03-02T12:54:21;29.44;28.20;30.52;;
72805;Laerm;60920;48.748;19.142;2024-03-02T12:56:47;29.40;27.97;30.67;;
72805;Laerm;60920;48.748;19.142;2024-03-02T12:59:17;29.41;28.10;30.60;;
72805;Laerm;60920;48.748;19.142;2024-03-02T13:01:52;29.44;28.12;30.73;;
72805;Laerm;60920;48.748;19.142;2024-03-02T13:04:21;29.48;28.22;30.71;;
72805;Laerm;60920;48.748;19.142;2024-03-02T13:06:46;29.47;28.12;30.58;;
72805;Laerm;60920;48.748;19.142;2024-03-02T13:09:12;29.49;28.14;30.75;;
72805;Laerm;60920;48.748;19.142;2024-03-02T13:11:40;29.46;28.05;30.94;;
72805;Laerm;60920;48.748;19.142;2024-03-02T13:14:06;29.43;28.02;30.82;;
72805;Laerm;60920;48.748;19.142;2024-03-02T13:16:31;29.42;28.18;30.75;;
72805;Laerm;60920;48.748;19.142;2024-03-02T13:18:57;29.41;28.00;30.97;;
72805;Laerm;60920;48.748;19.142;2024-03-02T13:21:22;29.39;28.15;30.53;;
72805;Laerm;60920;48.748;19.142;2024-03-02T13:23:47;29.38;28.06;30.64;;
72805;Laerm;60920;48.748;19.142;2024-03-02T13:26:13;29.38;28.09;30.81;;
72805;Laerm;60920;48.748;19.142;2024-03-02T13:28:38;29.35;27.65;30.64;;
72805;Laerm;60920;48.748;19.142;2024-03-02T13:31:04;29.37;27.96;30.53;;
72805;Laerm;60920;48.748;19.142;2024-03-02T13:33:29;29.38;28.13;30.62;;
72805;Laerm;60920;48.748;19.142;2024-03-02T13:35:56;29.40;28.02;30.61;;